Ayrshire, Indiana
Current Conditions -  °F | °C
As of 5:55 PM on Sunday 21 Dec 2014 (Local Time) from KHNB Reporting Station
Clear Clear  
Wind Chill: 32°   Ceiling: Unl
Heat Index: 36°   Visibility: 10mi
Dew Point: 27°   Wind: 5mph
Humidity: 70%   Direction: 130°SE
Pressure: 30.13"   Gusts: NA
Location:  38.3488°N, 87.2217°W
Report Text: KHNB 212355Z AUTO 13004KT 10SM CLR 02/M03 A3013 RMK AO1 10060 20020 54000
Loading
Personal Weather Stations






























Interactive Weather Map New forecast layout! Learn more

10-Day Weather Forecast

Advertisements
Track Severe Weather on mobile